createdAt,value
2023-02-15T00:01:09.277Z,100.00
2023-02-15T00:03:38.354Z,100.00
2023-02-15T00:06:07.867Z,100.00
2023-02-15T00:08:36.825Z,100.00
2023-02-15T00:11:07.584Z,100.00
2023-02-15T00:13:37.229Z,100.00
2023-02-15T00:16:09.300Z,100.00
2023-02-15T00:18:39.266Z,100.00
2023-02-15T00:21:10.293Z,100.00
2023-02-15T00:23:39.904Z,100.00
2023-02-15T00:26:10.629Z,100.00
2023-02-15T00:28:40.293Z,100.00
2023-02-15T00:31:12.441Z,100.00
2023-02-15T00:33:42.250Z,100.00
2023-02-15T00:36:12.668Z,100.00
2023-02-15T00:38:41.959Z,100.00
2023-02-15T00:41:11.513Z,100.00
2023-02-15T00:43:40.539Z,100.00
2023-02-15T00:46:11.461Z,100.00
2023-02-15T00:48:42.105Z,100.00
2023-02-15T00:51:11.214Z,100.00
2023-02-15T00:53:41.122Z,97.24
2023-02-15T00:56:10.372Z,98.42
2023-02-15T00:58:39.890Z,99.96
2023-02-15T01:01:14.870Z,100.00
2023-02-15T01:03:44.322Z,100.00
2023-02-15T01:06:13.748Z,100.00
2023-02-15T01:08:43.069Z,100.00
2023-02-15T01:11:14.794Z,100.00
2023-02-15T01:13:44.183Z,100.00
2023-02-15T01:16:14.544Z,100.00
2023-02-15T01:18:45.597Z,100.00
2023-02-15T01:21:16.483Z,100.00
2023-02-15T01:23:46.722Z,100.00
2023-02-15T01:26:16.469Z,100.00
2023-02-15T01:28:47.374Z,100.00
2023-02-15T01:31:22.047Z,97.57
2023-02-15T01:33:52.095Z,97.40
2023-02-15T01:36:21.402Z,96.50
2023-02-15T01:38:51.538Z,95.45
2023-02-15T01:41:24.993Z,94.82
2023-02-15T01:43:56.741Z,94.19
2023-02-15T01:46:33.257Z,95.47
2023-02-15T01:49:09.092Z,93.73
2023-02-15T01:51:43.408Z,90.95
2023-02-15T01:54:21.076Z,88.39
2023-02-15T01:56:50.892Z,85.38
2023-02-15T01:59:24.510Z,82.43
2023-02-15T02:02:00.618Z,83.19
2023-02-15T02:04:35.163Z,81.22
2023-02-15T02:07:06.537Z,79.49
2023-02-15T02:09:36.229Z,77.72
2023-02-15T02:12:05.739Z,77.64
2023-02-15T02:14:35.112Z,76.49
2023-02-15T02:17:14.520Z,77.49
2023-02-15T02:20:06.056Z,86.84
2023-02-15T02:23:07.137Z,97.71
2023-02-15T02:26:17.607Z,99.11
2023-02-15T02:29:20.194Z,97.91
2023-02-15T02:32:24.964Z,81.48
2023-02-15T02:35:01.342Z,81.31
2023-02-15T02:37:39.782Z,82.19
2023-02-15T02:40:16.342Z,84.39
2023-02-15T02:42:51.283Z,86.20
2023-02-15T02:45:27.719Z,89.42
2023-02-15T02:48:03.208Z,88.39
2023-02-15T02:50:33.632Z,87.96
2023-02-15T02:53:02.996Z,87.35
2023-02-15T02:55:37.108Z,88.52
2023-02-15T02:58:12.273Z,85.69
2023-02-15T03:00:46.717Z,85.37
2023-02-15T03:03:23.540Z,86.85
2023-02-15T03:05:59.369Z,86.89
2023-02-15T03:08:34.366Z,87.25
2023-02-15T03:11:07.483Z,86.90
2023-02-15T03:13:37.876Z,83.71
2023-02-15T03:16:29.892Z,84.60
2023-02-15T03:19:03.247Z,84.22
2023-02-15T03:21:41.325Z,86.53
2023-02-15T03:24:16.376Z,83.77
2023-02-15T03:26:49.930Z,82.06
2023-02-15T03:29:20.986Z,79.40
2023-02-15T03:31:58.772Z,78.71
2023-02-15T03:34:28.625Z,78.08
2023-02-15T03:37:08.127Z,75.58
2023-02-15T03:39:45.412Z,77.07
2023-02-15T03:42:19.864Z,79.03
2023-02-15T03:44:57.074Z,79.14
2023-02-15T03:47:31.663Z,79.75
2023-02-15T03:50:04.937Z,80.58
2023-02-15T03:52:36.429Z,82.19
2023-02-15T03:55:05.908Z,83.23
2023-02-15T03:57:56.442Z,83.40
2023-02-15T04:00:44.944Z,82.44
2023-02-15T04:03:25.234Z,82.69
2023-02-15T04:05:54.414Z,82.39
2023-02-15T04:08:45.285Z,81.81
2023-02-15T04:11:13.425Z,80.61
2023-02-15T04:13:42.694Z,79.99
2023-02-15T04:16:10.869Z,79.21
2023-02-15T04:19:01.121Z,80.39
2023-02-15T04:21:49.829Z,79.74
2023-02-15T04:24:37.998Z,79.89
2023-02-15T04:27:07.857Z,80.94
2023-02-15T04:29:36.838Z,82.42
2023-02-15T04:32:06.493Z,81.79
2023-02-15T04:34:35.653Z,81.69
2023-02-15T04:37:04.852Z,82.49
2023-02-15T04:39:35.195Z,83.44
2023-02-15T04:42:04.240Z,85.39
2023-02-15T04:44:33.192Z,86.31
2023-02-15T04:47:02.309Z,89.11
2023-02-15T04:49:31.338Z,89.62
2023-02-15T04:52:00.496Z,88.61
2023-02-15T04:54:29.571Z,88.80
2023-02-15T04:56:59.866Z,91.38
2023-02-15T04:59:28.737Z,92.33
2023-02-15T05:01:57.872Z,93.25
2023-02-15T05:04:26.951Z,94.33
2023-02-15T05:06:55.983Z,93.01
2023-02-15T05:09:25.139Z,93.06
2023-02-15T05:11:54.485Z,93.83
2023-02-15T05:14:25.177Z,93.08
2023-02-15T05:16:55.371Z,92.61
2023-02-15T05:19:26.346Z,92.98
2023-02-15T05:21:55.600Z,91.61
2023-02-15T05:24:42.587Z,90.48
2023-02-15T05:27:31.166Z,89.66
2023-02-15T05:30:01.912Z,90.09
2023-02-15T05:32:31.756Z,100.00
2023-02-15T05:35:00.914Z,100.00
2023-02-15T05:37:29.758Z,100.00
2023-02-15T05:39:59.252Z,100.00
2023-02-15T05:42:28.562Z,100.00
2023-02-15T05:44:57.765Z,100.00
2023-02-15T05:47:28.720Z,100.00
2023-02-15T05:49:58.390Z,100.00
2023-02-15T05:52:28.606Z,100.00
2023-02-15T05:54:59.248Z,94.35
2023-02-15T05:57:29.590Z,90.21
2023-02-15T05:59:59.961Z,90.17
2023-02-15T06:02:30.803Z,100.00
2023-02-15T06:05:00.319Z,100.00
2023-02-15T06:07:29.587Z,100.00
2023-02-15T06:09:59.012Z,100.00
2023-02-15T06:12:28.437Z,100.00
2023-02-15T06:14:57.591Z,100.00
2023-02-15T06:17:26.931Z,100.00
2023-02-15T06:19:57.520Z,100.00
2023-02-15T06:22:26.612Z,100.00
2023-02-15T06:24:56.734Z,100.00
2023-02-15T06:27:26.014Z,100.00
2023-02-15T06:29:55.302Z,100.00
2023-02-15T06:32:24.810Z,100.00
2023-02-15T06:34:54.128Z,100.00
2023-02-15T06:37:25.697Z,100.00
2023-02-15T06:39:55.124Z,100.00
2023-02-15T06:42:24.882Z,100.00
2023-02-15T06:44:54.197Z,100.00
2023-02-15T06:47:23.435Z,100.00
2023-02-15T06:49:52.577Z,100.00
2023-02-15T06:52:21.925Z,100.00
2023-02-15T06:54:52.529Z,100.00
2023-02-15T06:57:21.733Z,100.00
2023-02-15T06:59:51.031Z,100.00
2023-02-15T07:02:20.187Z,100.00
2023-02-15T07:04:49.572Z,100.00
2023-02-15T07:07:19.220Z,100.00
2023-02-15T07:09:48.529Z,100.00
2023-02-15T07:12:36.670Z,100.00
2023-02-15T07:15:07.842Z,100.00
2023-02-15T07:17:37.702Z,100.00
2023-02-15T07:20:09.439Z,100.00
2023-02-15T07:22:38.780Z,100.00
2023-02-15T07:25:10.530Z,100.00
2023-02-15T07:27:42.006Z,100.00
2023-02-15T07:30:13.271Z,100.00
2023-02-15T07:33:16.823Z,100.00
2023-02-15T07:35:50.362Z,100.00
2023-02-15T07:38:19.814Z,100.00
2023-02-15T07:40:49.179Z,100.00
2023-02-15T07:43:19.880Z,100.00
2023-02-15T07:45:49.291Z,100.00
2023-02-15T07:48:18.672Z,100.00
2023-02-15T07:50:48.268Z,100.00
2023-02-15T07:53:17.792Z,98.48
2023-02-15T07:55:46.866Z,96.70
2023-02-15T07:58:16.265Z,96.66
2023-02-15T08:00:59.046Z,100.00
2023-02-15T08:03:30.401Z,100.00
2023-02-15T08:06:03.262Z,96.05
2023-02-15T08:08:36.638Z,90.77
2023-02-15T08:11:30.132Z,93.47
2023-02-15T08:14:06.187Z,92.98
2023-02-15T08:16:41.599Z,92.92
2023-02-15T08:19:16.187Z,94.76
2023-02-15T08:21:47.759Z,100.00
2023-02-15T08:24:19.514Z,97.77
2023-02-15T08:26:49.807Z,94.04
2023-02-15T08:29:22.371Z,92.76
2023-02-15T08:31:56.433Z,91.43
2023-02-15T08:34:25.501Z,88.66
2023-02-15T08:36:54.756Z,89.96
2023-02-15T08:39:24.354Z,84.77
2023-02-15T08:41:53.586Z,87.04
2023-02-15T08:44:23.687Z,94.03
2023-02-15T08:46:54.152Z,89.00
2023-02-15T08:49:25.220Z,91.31
2023-02-15T08:51:54.916Z,87.88
2023-02-15T08:54:23.981Z,82.71
2023-02-15T08:56:53.295Z,100.00
2023-02-15T08:59:24.154Z,100.00
2023-02-15T09:01:55.281Z,100.00
2023-02-15T09:04:24.466Z,100.00
2023-02-15T09:06:54.000Z,100.00
2023-02-15T09:09:23.874Z,91.80
2023-02-15T09:11:59.102Z,86.07
2023-02-15T09:14:29.160Z,81.64
2023-02-15T09:17:00.083Z,80.43
2023-02-15T09:19:29.171Z,83.74
2023-02-15T09:21:59.698Z,86.18
2023-02-15T09:24:28.895Z,82.35
2023-02-15T09:26:58.141Z,81.55
2023-02-15T09:29:27.694Z,78.89
2023-02-15T09:31:57.652Z,77.68
2023-02-15T09:34:28.481Z,79.35
2023-02-15T09:36:57.743Z,81.85
2023-02-15T09:39:29.064Z,83.93
2023-02-15T09:42:43.598Z,80.28
2023-02-15T09:45:36.539Z,81.53
2023-02-15T09:48:21.087Z,78.47
2023-02-15T09:51:04.637Z,78.06
2023-02-15T09:53:48.897Z,80.52
2023-02-15T09:56:21.991Z,82.40
2023-02-15T09:59:00.058Z,79.31
2023-02-15T10:01:40.674Z,81.86
2023-02-15T10:04:34.136Z,77.62
2023-02-15T10:07:14.649Z,77.22
2023-02-15T10:09:57.831Z,78.10
2023-02-15T10:12:44.391Z,80.47
2023-02-15T10:15:27.201Z,80.44
2023-02-15T10:18:14.014Z,72.44
2023-02-15T10:20:54.675Z,71.32
2023-02-15T10:23:39.615Z,73.76
2023-02-15T10:26:16.296Z,69.26
2023-02-15T10:28:50.460Z,67.52
2023-02-15T10:31:26.117Z,61.76
2023-02-15T10:34:10.125Z,51.31
2023-02-15T10:36:55.411Z,50.20
2023-02-15T10:39:31.764Z,45.23
2023-02-15T10:42:11.986Z,46.55
2023-02-15T10:44:55.004Z,42.53
2023-02-15T10:47:55.171Z,42.49
2023-02-15T10:50:32.300Z,40.34
2023-02-15T10:53:13.761Z,38.31
2023-02-15T10:55:53.085Z,36.06
2023-02-15T10:58:37.175Z,34.94
2023-02-15T11:01:10.248Z,34.83
2023-02-15T11:03:54.294Z,33.25
2023-02-15T11:06:29.538Z,34.82
2023-02-15T11:09:03.576Z,33.69
2023-02-15T11:11:40.404Z,33.71
2023-02-15T11:14:16.849Z,33.80
2023-02-15T11:16:49.047Z,33.99
2023-02-15T11:19:24.740Z,31.04
2023-02-15T11:21:59.903Z,31.09
2023-02-15T11:24:32.226Z,31.78
2023-02-15T11:27:08.133Z,31.32
2023-02-15T11:29:43.332Z,29.11
2023-02-15T11:32:26.103Z,28.69
2023-02-15T11:35:00.715Z,28.77
2023-02-15T11:37:38.269Z,28.16
2023-02-15T11:40:21.716Z,27.99
2023-02-15T11:42:56.922Z,27.33
2023-02-15T11:45:31.038Z,26.93
2023-02-15T11:48:02.010Z,25.74
2023-02-15T11:50:34.644Z,27.06
2023-02-15T11:53:06.506Z,27.54
2023-02-15T11:55:36.196Z,26.60
2023-02-15T11:58:25.677Z,25.44
2023-02-15T12:01:00.868Z,26.53
2023-02-15T12:03:42.147Z,27.48
2023-02-15T12:06:26.665Z,26.64
2023-02-15T12:09:04.375Z,25.78
2023-02-15T12:11:39.234Z,26.50
2023-02-15T12:14:16.813Z,25.70
2023-02-15T12:16:48.110Z,25.03
2023-02-15T12:19:33.432Z,24.81
2023-02-15T12:22:06.455Z,24.16
2023-02-15T12:24:41.152Z,23.86
2023-02-15T12:27:18.185Z,23.58
2023-02-15T12:29:53.091Z,25.75
2023-02-15T12:32:27.317Z,24.84
2023-02-15T12:35:02.326Z,23.62
2023-02-15T12:37:35.826Z,24.54
2023-02-15T12:40:22.374Z,25.16
2023-02-15T12:42:51.806Z,23.65
2023-02-15T12:45:32.661Z,24.30
2023-02-15T12:48:16.950Z,23.88
2023-02-15T12:50:55.025Z,21.75
2023-02-15T12:53:34.835Z,23.39
2023-02-15T12:56:06.195Z,24.35
2023-02-15T12:58:37.072Z,23.55
2023-02-15T13:01:14.169Z,23.35
2023-02-15T13:03:59.218Z,24.05
2023-02-15T13:06:30.553Z,23.71
2023-02-15T13:09:07.815Z,24.23
2023-02-15T13:11:38.614Z,22.79
2023-02-15T13:14:20.687Z,22.05
2023-02-15T13:16:54.376Z,23.98
2023-02-15T13:19:31.897Z,22.74
2023-02-15T13:22:08.049Z,21.51
2023-02-15T13:24:41.430Z,22.18
2023-02-15T13:27:16.221Z,21.77
2023-02-15T13:29:50.696Z,23.86
2023-02-15T13:32:29.903Z,23.37
2023-02-15T13:35:01.625Z,29.18
2023-02-15T13:37:56.669Z,32.01
2023-02-15T13:40:32.229Z,33.56
2023-02-15T13:43:08.052Z,34.61
2023-02-15T13:45:47.559Z,31.91
2023-02-15T13:48:36.911Z,31.67
2023-02-15T13:51:22.356Z,30.86
2023-02-15T13:54:11.298Z,27.91
2023-02-15T13:56:55.951Z,30.29
2023-02-15T13:59:49.381Z,30.98
2023-02-15T14:02:45.742Z,32.78
2023-02-15T14:05:31.894Z,33.18
2023-02-15T14:08:13.729Z,33.36
2023-02-15T14:11:00.368Z,33.48
2023-02-15T14:13:57.966Z,33.88
2023-02-15T14:16:39.551Z,35.20
2023-02-15T14:19:19.251Z,34.90
2023-02-15T14:21:58.112Z,34.94
2023-02-15T14:24:38.754Z,34.96
2023-02-15T14:27:19.682Z,35.50
2023-02-15T14:29:53.634Z,35.44
2023-02-15T14:32:30.211Z,35.23
2023-02-15T14:35:01.909Z,36.07
2023-02-15T14:37:44.174Z,35.79
2023-02-15T14:40:39.233Z,36.27
2023-02-15T14:43:14.118Z,36.41
2023-02-15T14:45:54.795Z,36.23
2023-02-15T14:48:32.274Z,36.25
2023-02-15T14:51:03.053Z,36.76
2023-02-15T14:53:39.465Z,36.93
2023-02-15T14:56:22.670Z,37.29
2023-02-15T14:59:00.921Z,36.37
2023-02-15T15:01:33.121Z,36.85
2023-02-15T15:04:07.039Z,36.71
2023-02-15T15:06:37.127Z,36.86
2023-02-15T15:09:17.568Z,36.94
2023-02-15T15:11:48.959Z,36.83
2023-02-15T15:14:41.521Z,36.91
2023-02-15T15:17:14.266Z,37.03
2023-02-15T15:20:14.682Z,37.59
2023-02-15T15:22:47.446Z,37.27
2023-02-15T15:25:49.072Z,37.75
2023-02-15T15:28:57.281Z,37.77
2023-02-15T15:31:34.395Z,37.77
2023-02-15T15:34:39.289Z,37.87
2023-02-15T15:37:45.781Z,38.02
2023-02-15T15:40:44.453Z,38.22
2023-02-15T15:43:39.986Z,38.16
2023-02-15T15:46:26.308Z,38.33
2023-02-15T15:48:56.229Z,38.25
2023-02-15T15:51:32.102Z,38.33
2023-02-15T15:54:04.117Z,38.53
2023-02-15T15:56:36.145Z,38.64
2023-02-15T15:59:10.077Z,38.77
2023-02-15T16:01:43.953Z,38.83
2023-02-15T16:04:16.703Z,38.22
2023-02-15T16:06:47.140Z,38.35
2023-02-15T16:09:20.725Z,38.55
2023-02-15T16:11:52.695Z,38.33
2023-02-15T16:14:31.162Z,38.22
2023-02-15T16:17:04.360Z,38.27
2023-02-15T16:19:38.116Z,38.34
2023-02-15T16:22:14.680Z,38.76
2023-02-15T16:25:06.932Z,38.63
2023-02-15T16:27:38.651Z,38.76
2023-02-15T16:30:29.122Z,38.53
2023-02-15T16:33:07.698Z,38.80
2023-02-15T16:35:38.985Z,39.06
2023-02-15T16:38:11.557Z,39.13
2023-02-15T16:40:53.741Z,39.12
2023-02-15T16:43:28.411Z,39.47
2023-02-15T16:46:06.920Z,39.51
2023-02-15T16:48:44.336Z,39.47
2023-02-15T16:51:23.034Z,39.30
2023-02-15T16:53:54.003Z,39.86
2023-02-15T16:56:26.349Z,39.52
2023-02-15T16:58:58.983Z,39.79
2023-02-15T17:01:33.035Z,39.48
2023-02-15T17:04:26.308Z,39.66
2023-02-15T17:07:02.010Z,39.22
2023-02-15T17:09:31.781Z,39.50
2023-02-15T17:12:03.147Z,39.68
2023-02-15T17:14:34.468Z,39.64
2023-02-15T17:17:13.460Z,39.62
2023-02-15T17:19:50.090Z,39.91
2023-02-15T17:22:23.456Z,39.77
2023-02-15T17:25:00.790Z,39.87
2023-02-15T17:27:36.535Z,40.27
2023-02-15T17:30:15.804Z,40.62
2023-02-15T17:32:58.039Z,40.69
2023-02-15T17:35:29.315Z,40.86
2023-02-15T17:38:08.456Z,40.88
2023-02-15T17:40:39.194Z,41.27
2023-02-15T17:43:08.814Z,41.43
2023-02-15T17:45:45.987Z,41.31
2023-02-15T17:48:23.029Z,41.86
2023-02-15T17:50:53.138Z,42.15
2023-02-15T17:53:22.680Z,42.19
2023-02-15T17:55:51.171Z,42.35
2023-02-15T17:58:22.513Z,42.73
2023-02-15T18:01:11.937Z,42.68
2023-02-15T18:04:04.184Z,42.85
2023-02-15T18:06:52.261Z,43.19
2023-02-15T18:09:41.033Z,43.47
2023-02-15T18:12:21.803Z,43.96
2023-02-15T18:14:52.242Z,44.50
2023-02-15T18:17:32.071Z,44.66
2023-02-15T18:20:05.753Z,44.43
2023-02-15T18:22:36.784Z,44.84
2023-02-15T18:25:07.686Z,44.92
2023-02-15T18:27:38.765Z,44.91
2023-02-15T18:30:09.818Z,45.38
2023-02-15T18:32:41.367Z,44.98
2023-02-15T18:35:16.764Z,45.42
2023-02-15T18:37:47.982Z,45.98
2023-02-15T18:40:18.168Z,46.07
2023-02-15T18:42:49.148Z,46.54
2023-02-15T18:45:22.563Z,47.18
2023-02-15T18:47:52.296Z,46.81
2023-02-15T18:50:25.242Z,47.05
2023-02-15T18:52:55.084Z,46.81
2023-02-15T18:55:28.146Z,47.13
2023-02-15T18:57:58.363Z,48.13
2023-02-15T19:00:30.044Z,48.94
2023-02-15T19:03:01.755Z,48.84
2023-02-15T19:05:34.437Z,48.85
2023-02-15T19:08:04.786Z,48.74
2023-02-15T19:10:35.041Z,49.04
2023-02-15T19:13:04.761Z,49.28
2023-02-15T19:15:34.488Z,49.74
2023-02-15T19:18:04.138Z,49.92
2023-02-15T19:20:39.947Z,50.40
2023-02-15T19:23:17.931Z,50.22
2023-02-15T19:25:49.198Z,50.56
2023-02-15T19:28:21.174Z,50.45
2023-02-15T19:30:51.441Z,50.66
2023-02-15T19:33:24.077Z,50.77
2023-02-15T19:35:57.641Z,50.99
2023-02-15T19:38:30.532Z,50.80
2023-02-15T19:41:05.057Z,50.76
2023-02-15T19:43:36.180Z,50.68
2023-02-15T19:46:06.396Z,50.69
2023-02-15T19:48:36.756Z,50.83
2023-02-15T19:51:07.448Z,50.58
2023-02-15T19:53:36.821Z,50.49
2023-02-15T19:56:06.609Z,50.89
2023-02-15T19:58:36.136Z,51.03
2023-02-15T20:01:05.958Z,51.57
2023-02-15T20:03:36.118Z,51.68
2023-02-15T20:06:07.392Z,51.36
2023-02-15T20:08:37.443Z,51.12
2023-02-15T20:11:10.901Z,51.59
2023-02-15T20:13:40.868Z,51.44
2023-02-15T20:16:10.398Z,51.44
2023-02-15T20:18:44.937Z,51.52
2023-02-15T20:21:18.606Z,51.32
2023-02-15T20:23:48.254Z,51.58
2023-02-15T20:26:19.704Z,51.37
2023-02-15T20:28:49.330Z,51.70
2023-02-15T20:31:21.840Z,52.70
2023-02-15T20:33:51.667Z,52.21
2023-02-15T20:36:25.023Z,52.47
2023-02-15T20:38:57.537Z,53.16
2023-02-15T20:41:40.162Z,53.47
2023-02-15T20:44:29.306Z,53.40
2023-02-15T20:47:01.792Z,54.31
2023-02-15T20:49:31.409Z,53.75
2023-02-15T20:52:04.771Z,54.56
2023-02-15T20:54:37.403Z,55.10
2023-02-15T20:57:07.324Z,55.14
2023-02-15T20:59:37.309Z,56.66
2023-02-15T21:02:18.611Z,56.92
2023-02-15T21:04:48.535Z,56.51
2023-02-15T21:07:22.382Z,56.54
2023-02-15T21:09:52.876Z,57.13
2023-02-15T21:12:23.705Z,57.84
2023-02-15T21:14:53.092Z,57.82
2023-02-15T21:17:22.518Z,58.79
2023-02-15T21:19:52.402Z,59.11
2023-02-15T21:22:23.904Z,59.64
2023-02-15T21:24:55.065Z,59.68
2023-02-15T21:27:24.659Z,60.06
2023-02-15T21:29:54.027Z,60.53
2023-02-15T21:32:23.401Z,61.41
2023-02-15T21:34:53.102Z,60.69
2023-02-15T21:37:33.686Z,61.79
2023-02-15T21:40:05.888Z,62.27
2023-02-15T21:42:51.948Z,62.66
2023-02-15T21:45:38.752Z,62.45
2023-02-15T21:48:08.034Z,62.75
2023-02-15T21:50:55.490Z,62.65
2023-02-15T21:53:29.299Z,64.70
2023-02-15T21:56:00.331Z,65.80
2023-02-15T21:58:32.311Z,64.56
2023-02-15T22:01:03.543Z,64.38
2023-02-15T22:03:35.249Z,65.33
2023-02-15T22:06:06.191Z,64.58
2023-02-15T22:08:36.976Z,64.96
2023-02-15T22:11:12.868Z,65.69
2023-02-15T22:13:42.984Z,65.50
2023-02-15T22:16:17.100Z,66.24
2023-02-15T22:18:47.093Z,67.59
2023-02-15T22:21:18.188Z,68.25
2023-02-15T22:23:48.941Z,67.94
2023-02-15T22:26:25.100Z,68.36
2023-02-15T22:28:54.524Z,69.06
2023-02-15T22:31:24.679Z,73.02
2023-02-15T22:33:55.412Z,70.67
2023-02-15T22:36:26.561Z,68.75
2023-02-15T22:38:58.308Z,69.21
2023-02-15T22:41:31.749Z,73.27
2023-02-15T22:44:01.136Z,73.30
2023-02-15T22:46:30.514Z,72.38
2023-02-15T22:48:59.514Z,72.26
2023-02-15T22:51:28.952Z,71.17
2023-02-15T22:53:59.836Z,72.85
2023-02-15T22:56:40.048Z,74.66
2023-02-15T22:59:17.725Z,74.91
2023-02-15T23:01:47.652Z,74.75
2023-02-15T23:04:19.940Z,76.77
2023-02-15T23:06:49.954Z,76.81
2023-02-15T23:09:21.459Z,75.57
2023-02-15T23:11:52.443Z,77.47
2023-02-15T23:14:27.554Z,77.06
2023-02-15T23:16:56.920Z,77.18
2023-02-15T23:19:26.213Z,79.32
2023-02-15T23:21:55.693Z,78.10
2023-02-15T23:24:29.695Z,79.17
2023-02-15T23:27:19.921Z,80.26
2023-02-15T23:29:49.304Z,80.70
2023-02-15T23:32:20.483Z,82.45
2023-02-15T23:34:50.241Z,82.86
2023-02-15T23:37:19.640Z,82.39
2023-02-15T23:40:07.722Z,85.74
2023-02-15T23:42:37.032Z,86.78
2023-02-15T23:45:19.594Z,86.15
2023-02-15T23:48:05.929Z,86.41
2023-02-15T23:50:35.706Z,90.80
2023-02-15T23:53:05.263Z,95.14
2023-02-15T23:55:38.471Z,93.61
2023-02-15T23:58:13.103Z,92.54
